Time;durP1;ratioP1;P1;durP2;ratioP2;P2;SDS_P1;SDS_P2;PMS_P1;PMS_P2;Temp;Humidity;BMP_temperature;BMP_pressure;BME280_temperature;BME280_humidity;BME280_pressure;Samples;Min_cycle;Max_cycle;Signal;HPM_P1;HPM_P2
2023/04/21 00:00:14;;;;;;;3.95;2.83;;;20.10;67.30;;;;;;5172959;23;20019;-60
2023/04/21 00:02:40;;;;;;;7.03;2.70;;;20.10;67.30;;;;;;5172566;22;20492;-60
2023/04/21 00:05:02;;;;;;;12.85;2.60;;;20.10;67.30;;;;;;5124170;23;20059;-58
2023/04/21 00:07:25;;;;;;;7.95;2.90;;;20.10;67.20;;;;;;5172604;23;20023;-58
2023/04/21 00:09:48;;;;;;;8.13;2.85;;;20.20;67.30;;;;;;5165078;22;20074;-59
2023/04/21 00:12:10;;;;;;;7.13;3.00;;;20.20;66.90;;;;;;5139701;23;20076;-58
2023/04/21 00:14:32;;;;;;;4.57;2.58;;;20.20;67.40;;;;;;5172429;23;20019;-59
2023/04/21 00:16:55;;;;;;;7.13;3.17;;;20.20;67.40;;;;;;5148857;23;20498;-58
2023/04/21 00:19:18;;;;;;;9.20;2.80;;;20.30;67.60;;;;;;5162571;23;20091;-57
2023/04/21 00:21:41;;;;;;;11.27;2.97;;;20.30;67.50;;;;;;5172446;23;20023;-59
2023/04/21 00:24:03;;;;;;;8.45;2.75;;;20.30;67.60;;;;;;5173485;23;20238;-56
2023/04/21 00:26:26;;;;;;;12.73;4.03;;;20.40;67.80;;;;;;5171769;23;20043;-50
2023/04/21 00:28:48;;;;;;;7.57;2.75;;;20.40;68.00;;;;;;5173166;23;20035;-55
2023/04/21 00:31:10;;;;;;;8.73;3.05;;;20.50;68.50;;;;;;5170003;23;20066;-56
2023/04/21 00:33:33;;;;;;;6.75;3.05;;;20.60;68.60;;;;;;5172750;23;20511;-56
2023/04/21 00:35:57;;;;;;;6.10;2.50;;;20.70;68.00;;;;;;5171990;23;20012;-56
2023/04/21 00:38:20;;;;;;;5.70;2.47;;;20.70;67.50;;;;;;5164663;22;20111;-59
2023/04/21 00:40:42;;;;;;;14.65;3.22;;;20.70;67.10;;;;;;5172271;23;20034;-58
2023/04/21 00:43:08;;;;;;;22.33;3.85;;;20.70;67.60;;;;;;5171504;23;20062;-58
2023/04/21 00:45:33;;;;;;;9.27;3.17;;;20.80;67.30;;;;;;5164066;23;20024;-58
2023/04/21 00:47:55;;;;;;;11.52;2.78;;;20.80;67.50;;;;;;5171068;23;20110;-58
2023/04/21 00:50:18;;;;;;;10.85;2.80;;;20.80;67.30;;;;;;5172456;23;20034;-58
2023/04/21 00:52:42;;;;;;;7.85;2.50;;;20.80;67.30;;;;;;5142679;22;20100;-56
2023/04/21 00:55:06;;;;;;;12.55;2.80;;;20.90;67.60;;;;;;5161631;23;20044;-57
2023/04/21 00:57:31;;;;;;;14.30;3.13;;;20.90;67.70;;;;;;5169708;23;20481;-63
2023/04/21 00:59:53;;;;;;;7.78;2.55;;;20.90;67.90;;;;;;5172799;23;20091;-58
2023/04/21 01:02:17;;;;;;;13.63;2.53;;;20.90;68.00;;;;;;5174026;22;20023;-62
2023/04/21 01:04:39;;;;;;;;;;;21.00;68.00;;;;;;5173973;23;20087;-63
2023/04/21 01:07:03;;;;;;;7.22;2.45;;;21.00;67.90;;;;;;5172090;23;19978;-59
2023/04/21 01:09:26;;;;;;;9.90;2.33;;;21.00;67.80;;;;;;5172543;23;20016;-62
2023/04/21 01:12:05;;;;;;;8.00;2.28;;;21.10;67.80;;;;;;5170320;23;20015;-58
2023/04/21 01:14:28;;;;;;;5.53;2.22;;;21.10;67.70;;;;;;5172414;23;20012;-58
2023/04/21 01:16:51;;;;;;;5.13;2.38;;;21.10;67.70;;;;;;5171188;23;20024;-59
2023/04/21 01:19:13;;;;;;;5.40;1.83;;;21.10;67.50;;;;;;5173568;23;20082;-60
2023/04/21 01:21:43;;;;;;;5.68;2.15;;;21.10;67.50;;;;;;5171255;23;20012;-56
2023/04/21 01:24:05;;;;;;;4.53;1.73;;;21.10;67.50;;;;;;5173267;23;20036;-60
2023/04/21 01:26:28;;;;;;;4.22;2.00;;;21.20;67.40;;;;;;5171549;23;20019;-61
2023/04/21 01:28:50;;;;;;;4.55;2.30;;;21.20;67.40;;;;;;5168164;23;20016;-62
2023/04/21 01:31:13;;;;;;;4.97;2.13;;;21.20;67.20;;;;;;5165007;22;20016;-62
2023/04/21 01:33:35;;;;;;;4.05;2.17;;;21.30;67.30;;;;;;5171328;23;20023;-60
2023/04/21 01:35:59;;;;;;;4.45;2.00;;;21.30;67.30;;;;;;5171728;23;20071;-63
2023/04/21 01:38:23;;;;;;;5.72;1.98;;;21.30;67.10;;;;;;5172100;23;20373;-59
2023/04/21 01:40:49;;;;;;;6.10;2.00;;;21.30;67.10;;;;;;5171055;23;20016;-60
2023/04/21 01:43:12;;;;;;;3.72;1.75;;;21.40;67.10;;;;;;5172483;23;20023;-58
2023/04/21 01:45:34;;;;;;;4.18;1.95;;;21.40;67.00;;;;;;5171890;23;20043;-59
2023/04/21 01:47:57;;;;;;;3.10;1.73;;;21.40;67.10;;;;;;5172578;23;20031;-61
2023/04/21 01:50:19;;;;;;;3.70;1.80;;;21.50;67.00;;;;;;5164714;22;20008;-60
2023/04/21 01:52:42;;;;;;;4.82;1.85;;;21.50;66.90;;;;;;5170891;23;20090;-58
2023/04/21 01:55:04;;;;;;;4.95;1.80;;;21.50;66.80;;;;;;5143370;22;20573;-62
2023/04/21 01:57:27;;;;;;;8.15;2.15;;;21.50;66.80;;;;;;5172152;23;20043;-61
2023/04/21 01:59:49;;;;;;;5.00;1.90;;;21.60;66.50;;;;;;5171047;23;20019;-59
2023/04/21 02:02:12;;;;;;;3.83;2.05;;;21.60;66.60;;;;;;5172080;22;20019;-58
2023/04/21 02:04:34;;;;;;;6.18;2.25;;;21.60;66.80;;;;;;5171995;23;20039;-58
2023/04/21 02:06:57;;;;;;;6.50;2.33;;;21.60;66.70;;;;;;5170312;23;20050;-57
2023/04/21 02:09:19;;;;;;;12.02;2.33;;;21.60;66.80;;;;;;5172780;23;20012;-59
2023/04/21 02:11:42;;;;;;;4.57;1.85;;;21.60;66.80;;;;;;5169065;23;20488;-57
2023/04/21 02:14:04;;;;;;;6.35;2.03;;;21.60;67.00;;;;;;5173768;23;20008;-57
2023/04/21 02:16:27;;;;;;;4.90;1.48;;;21.60;66.80;;;;;;5170695;23;20027;-57
2023/04/21 02:18:49;;;;;;;4.40;1.77;;;21.60;66.90;;;;;;5171167;23;20024;-55
2023/04/21 02:21:12;;;;;;;5.15;1.80;;;21.70;66.80;;;;;;5143649;22;20043;-57
2023/04/21 02:23:34;;;;;;;3.58;1.63;;;21.70;66.80;;;;;;5170941;23;20038;-58
2023/04/21 02:25:57;;;;;;;5.82;1.73;;;21.80;66.80;;;;;;5172305;23;20477;-57
2023/04/21 02:28:19;;;;;;;5.32;1.90;;;21.70;66.60;;;;;;5171681;23;20091;-60
2023/04/21 02:30:42;;;;;;;4.40;1.88;;;21.80;66.60;;;;;;5172517;23;20537;-62
2023/04/21 02:33:04;;;;;;;6.72;1.80;;;21.80;66.60;;;;;;5171880;23;20046;-62
2023/04/21 02:35:27;;;;;;;3.95;1.45;;;21.90;66.60;;;;;;5171559;23;20020;-58
2023/04/21 02:37:49;;;;;;;3.83;1.50;;;21.90;66.60;;;;;;5141643;22;20025;-61
2023/04/21 02:40:12;;;;;;;3.47;1.38;;;21.90;66.50;;;;;;5172334;23;20012;-59
2023/04/21 02:42:34;;;;;;;3.15;1.20;;;21.90;66.60;;;;;;5172557;23;20016;-58
2023/04/21 02:44:56;;;;;;;3.28;1.60;;;21.90;66.60;;;;;;5172011;23;20353;-56
2023/04/21 02:47:19;;;;;;;4.75;1.55;;;21.90;66.60;;;;;;5169984;23;20346;-56
2023/04/21 02:49:42;;;;;;;3.88;1.40;;;22.00;66.60;;;;;;5170782;23;20022;-58
2023/04/21 02:52:04;;;;;;;4.33;1.37;;;22.00;66.50;;;;;;5171214;23;20026;-54
2023/04/21 02:54:27;;;;;;;4.07;1.50;;;22.00;66.40;;;;;;5171209;23;20016;-56
2023/04/21 02:56:49;;;;;;;3.33;1.52;;;22.00;66.50;;;;;;5171056;23;20028;-58
2023/04/21 02:59:15;;;;;;;4.85;1.40;;;22.00;66.50;;;;;;5171397;23;20016;-57
2023/04/21 03:01:37;;;;;;;3.53;1.73;;;22.00;66.50;;;;;;5171842;23;20016;-59
2023/04/21 03:04:00;;;;;;;5.20;1.38;;;22.10;66.50;;;;;;5172909;22;20657;-59
2023/04/21 03:06:22;;;;;;;5.18;1.65;;;22.10;66.40;;;;;;5142430;22;20056;-61
2023/04/21 03:08:45;;;;;;;4.40;1.50;;;22.20;66.30;;;;;;5169641;23;20023;-57
2023/04/21 03:11:07;;;;;;;5.07;1.83;;;22.20;66.30;;;;;;5165092;22;20027;-59
2023/04/21 03:13:29;;;;;;;3.53;1.45;;;22.20;66.30;;;;;;5170902;23;20012;-58
2023/04/21 03:15:52;;;;;;;6.28;1.77;;;22.20;66.50;;;;;;5143621;22;20016;-59
2023/04/21 03:18:14;;;;;;;4.63;1.70;;;22.20;66.40;;;;;;5170579;23;20020;-58
2023/04/21 03:20:37;;;;;;;8.57;2.38;;;22.30;66.50;;;;;;5144013;22;20021;-57
2023/04/21 03:22:59;;;;;;;9.50;2.17;;;22.30;66.50;;;;;;5173219;23;20012;-58
2023/04/21 03:25:22;;;;;;;7.25;2.00;;;22.30;66.40;;;;;;5172318;23;20532;-58
2023/04/21 03:27:44;;;;;;;9.45;2.25;;;22.40;67.00;;;;;;5166691;22;20016;-58
2023/04/21 03:30:07;;;;;;;9.23;2.00;;;22.40;66.30;;;;;;5174019;23;20012;-56
2023/04/21 03:32:30;;;;;;;7.40;1.80;;;22.40;66.20;;;;;;5173587;23;20359;-57
2023/04/21 03:34:52;;;;;;;5.30;2.70;;;22.40;66.20;;;;;;5172653;23;20334;-59
2023/04/21 03:37:15;;;;;;;8.77;2.05;;;22.40;66.20;;;;;;5173295;23;20023;-53
2023/04/21 03:39:37;;;;;;;11.57;1.98;;;22.40;66.20;;;;;;5172239;23;20091;-58
2023/04/21 03:42:00;;;;;;;4.20;1.75;;;22.40;66.30;;;;;;5171613;23;20047;-58
2023/04/21 03:44:26;;;;;;;4.03;1.58;;;22.40;66.40;;;;;;5173760;23;20012;-56
2023/04/21 03:46:48;;;;;;;3.70;1.85;;;22.40;66.40;;;;;;5172861;23;20473;-60
2023/04/21 03:49:10;;;;;;;5.25;1.67;;;22.40;66.20;;;;;;5172224;23;20459;-59
2023/04/21 03:51:33;;;;;;;8.15;1.83;;;22.50;66.20;;;;;;5172220;23;20024;-60
2023/04/21 03:53:55;;;;;;;10.43;1.90;;;22.50;66.20;;;;;;5172261;23;20008;-59
2023/04/21 03:56:18;;;;;;;5.72;1.70;;;22.50;66.00;;;;;;5172101;23;20362;-59
2023/04/21 03:58:40;;;;;;;4.78;2.10;;;22.50;65.50;;;;;;5173306;23;20446;-58
2023/04/21 04:01:05;;;;;;;5.75;2.00;;;22.50;65.50;;;;;;5171240;23;20043;-59
2023/04/21 04:03:28;;;;;;;6.45;1.50;;;22.60;65.50;;;;;;5173204;22;20434;-57
2023/04/21 04:05:50;;;;;;;4.65;1.50;;;22.60;65.50;;;;;;5171001;23;20008;-59
2023/04/21 04:08:13;;;;;;;7.40;2.20;;;22.70;65.40;;;;;;5171296;23;20019;-61
2023/04/21 04:10:35;;;;;;;4.53;1.55;;;22.70;65.30;;;;;;5172252;23;20089;-62
2023/04/21 04:12:57;;;;;;;5.55;1.77;;;22.70;65.20;;;;;;5144006;22;20332;-58
2023/04/21 04:15:20;;;;;;;6.38;2.17;;;22.70;65.10;;;;;;5173253;23;20359;-58
2023/04/21 04:17:42;;;;;;;4.85;1.50;;;22.80;65.10;;;;;;5172712;23;20450;-64
2023/04/21 04:20:07;;;;;;;9.55;2.67;;;22.80;64.90;;;;;;5170536;23;20008;-56
2023/04/21 04:22:29;;;;;;;5.80;1.77;;;22.90;64.90;;;;;;5170984;23;20016;-61
2023/04/21 04:24:52;;;;;;;8.70;1.88;;;23.00;64.80;;;;;;5172849;23;20088;-61
2023/04/21 04:27:14;;;;;;;14.98;2.47;;;23.10;64.70;;;;;;5170218;23;20012;-59
2023/04/21 04:29:36;;;;;;;13.00;2.70;;;23.20;64.40;;;;;;5170274;23;20032;-57
2023/04/21 04:32:00;;;;;;;6.53;1.30;;;23.30;64.20;;;;;;5170059;23;20025;-57
2023/04/21 04:34:22;;;;;;;4.45;1.33;;;23.40;63.90;;;;;;5169478;23;20018;-59
2023/04/21 04:36:46;;;;;;;6.10;1.77;;;23.50;63.60;;;;;;5170610;23;20024;-56
2023/04/21 04:39:09;;;;;;;4.75;1.40;;;23.60;63.40;;;;;;5159738;23;20469;-58
2023/04/21 04:41:32;;;;;;;2.38;1.63;;;23.70;63.20;;;;;;5169886;23;20026;-61
2023/04/21 04:43:58;;;;;;;4.95;1.55;;;23.80;63.00;;;;;;5163494;22;20012;-58
2023/04/21 04:46:21;;;;;;;6.03;1.88;;;23.80;62.80;;;;;;5171048;23;20016;-60
2023/04/21 04:48:43;;;;;;;4.47;1.75;;;23.90;62.70;;;;;;5169535;23;20031;-58
2023/04/21 04:51:06;;;;;;;7.25;1.85;;;24.00;62.50;;;;;;5167407;23;20458;-57
2023/04/21 04:53:29;;;;;;;4.90;1.55;;;24.10;62.30;;;;;;5171259;23;20008;-60
2023/04/21 04:55:52;;;;;;;8.50;1.70;;;24.20;62.00;;;;;;5172270;23;20058;-57
2023/04/21 04:58:15;;;;;;;5.25;1.50;;;24.30;61.80;;;;;;5171959;23;20059;-58
2023/04/21 05:00:37;;;;;;;5.07;1.88;;;24.40;61.50;;;;;;5171569;23;20357;-53
2023/04/21 05:02:59;;;;;;;5.30;1.33;;;24.40;61.30;;;;;;5171224;22;20331;-62
2023/04/21 05:05:23;;;;;;;9.35;1.58;;;24.50;61.20;;;;;;5172689;23;20048;-58
2023/04/21 05:07:46;;;;;;;3.00;1.17;;;24.60;61.00;;;;;;5170343;23;20015;-55
2023/04/21 05:10:08;;;;;;;10.27;1.88;;;24.60;60.80;;;;;;5165134;22;20215;-55
2023/04/21 05:12:31;;;;;;;2.80;1.38;;;24.70;60.70;;;;;;5171633;23;20418;-59
2023/04/21 05:14:53;;;;;;;2.75;1.20;;;24.80;60.70;;;;;;5170888;23;20517;-57
2023/04/21 05:17:16;;;;;;;5.82;1.35;;;24.80;60.40;;;;;;5171048;23;20028;-59
2023/04/21 05:19:38;;;;;;;5.35;1.70;;;24.80;60.30;;;;;;5171364;23;20015;-58
2023/04/21 05:22:00;;;;;;;5.60;1.52;;;24.90;60.20;;;;;;5170762;23;20103;-58
2023/04/21 05:24:23;;;;;;;5.25;1.45;;;24.90;60.10;;;;;;5171590;23;20012;-58
2023/04/21 05:26:45;;;;;;;4.82;1.33;;;25.00;60.10;;;;;;5170593;23;20023;-61
2023/04/21 05:29:08;;;;;;;5.78;1.45;;;25.00;59.90;;;;;;5171799;23;20019;-59
2023/04/21 05:31:31;;;;;;;4.40;1.30;;;25.00;59.90;;;;;;5141354;22;20008;-62
2023/04/21 05:33:54;;;;;;;4.28;1.27;;;24.90;59.90;;;;;;5170718;23;20011;-59
2023/04/21 05:36:18;;;;;;;3.13;1.30;;;25.00;59.90;;;;;;5162274;23;20016;-59
2023/04/21 05:38:41;;;;;;;3.30;1.10;;;25.00;59.80;;;;;;5172403;23;20016;-59
2023/04/21 05:41:04;;;;;;;9.30;1.52;;;25.00;59.80;;;;;;5162135;23;20016;-53
2023/04/21 05:43:26;;;;;;;6.72;1.60;;;25.00;59.60;;;;;;5170313;23;20035;-55
2023/04/21 05:45:49;;;;;;;4.97;1.17;;;24.90;59.70;;;;;;5172083;23;20059;-57
2023/04/21 05:48:11;;;;;;;3.33;1.13;;;24.80;60.00;;;;;;5168889;23;20069;-50
2023/04/21 05:50:34;;;;;;;10.30;1.75;;;24.80;60.20;;;;;;5142008;22;20023;-57
2023/04/21 05:52:57;;;;;;;6.27;1.43;;;24.80;60.30;;;;;;5170738;23;20038;-57
2023/04/21 05:55:19;;;;;;;5.93;1.65;;;24.80;60.50;;;;;;5168914;23;20019;-59
2023/04/21 05:57:41;;;;;;;4.50;1.38;;;24.70;60.60;;;;;;5167576;23;20024;-57
2023/04/21 06:00:04;;;;;;;2.58;0.90;;;24.70;60.80;;;;;;5170097;23;20012;-53
2023/04/21 06:02:27;;;;;;;4.78;1.25;;;24.70;61.10;;;;;;5137063;23;20016;-53
2023/04/21 06:04:49;;;;;;;4.13;0.90;;;24.60;61.20;;;;;;5168973;23;20016;-54
2023/04/21 06:07:12;;;;;;;3.78;1.10;;;24.60;61.30;;;;;;5166734;23;20012;-56
2023/04/21 06:09:35;;;;;;;4.30;1.30;;;24.60;61.20;;;;;;5169228;23;20095;-54
2023/04/21 06:11:58;;;;;;;5.05;1.23;;;24.60;61.40;;;;;;5169976;23;20252;-55
2023/04/21 06:14:20;;;;;;;4.45;1.52;;;24.60;61.50;;;;;;5169669;23;20069;-58
2023/04/21 06:16:42;;;;;;;9.35;2.25;;;24.60;61.60;;;;;;5168383;23;20023;-57
2023/04/21 06:19:05;;;;;;;8.43;1.35;;;24.60;61.50;;;;;;5169261;23;20377;-56
2023/04/21 06:21:27;;;;;;;8.82;1.50;;;24.60;61.60;;;;;;5166891;23;20012;-62
2023/04/21 06:23:49;;;;;;;7.65;1.90;;;24.60;61.70;;;;;;5169091;23;20026;-53
2023/04/21 06:26:12;;;;;;;10.77;2.22;;;24.50;61.20;;;;;;5167715;23;20095;-58
2023/04/21 06:28:36;;;;;;;10.00;2.33;;;24.50;61.30;;;;;;5170077;23;20015;-56
2023/04/21 06:31:00;;;;;;;17.48;2.25;;;24.50;61.40;;;;;;5158248;23;20019;-51
2023/04/21 06:33:21;;;;;;;;;;;24.50;61.60;;;;;;5169926;23;20476;-58
2023/04/21 06:35:44;;;;;;;8.77;2.10;;;24.40;61.30;;;;;;5171078;23;19911;-58
2023/04/21 06:38:08;;;;;;;8.52;1.65;;;24.40;61.40;;;;;;5171438;23;20056;-57
2023/04/21 06:40:31;;;;;;;14.90;2.03;;;24.40;61.70;;;;;;5167124;23;20015;-51
2023/04/21 06:42:53;;;;;;;14.82;2.03;;;24.40;61.80;;;;;;5168958;23;20039;-56
2023/04/21 06:45:15;;;;;;;8.18;1.40;;;24.40;61.90;;;;;;5171105;23;20058;-55
2023/04/21 06:47:38;;;;;;;7.85;1.75;;;24.40;61.90;;;;;;5170324;23;20054;-54
2023/04/21 06:50:00;;;;;;;10.35;2.13;;;24.40;62.00;;;;;;5170189;23;20446;-58
2023/04/21 06:52:22;;;;;;;10.32;1.52;;;24.30;62.00;;;;;;5169107;23;20027;-53
2023/04/21 06:54:45;;;;;;;9.48;1.98;;;24.40;62.10;;;;;;5168850;23;20409;-54
2023/04/21 06:57:07;;;;;;;7.22;1.40;;;24.40;62.10;;;;;;5170721;23;20028;-56
2023/04/21 06:59:30;;;;;;;5.38;1.23;;;24.30;62.10;;;;;;5170603;23;20016;-56
2023/04/21 07:01:52;;;;;;;5.07;1.63;;;24.30;62.00;;;;;;5137292;23;20027;-53
2023/04/21 07:04:14;;;;;;;12.23;1.45;;;24.30;62.00;;;;;;5171229;23;20319;-57
2023/04/21 07:06:37;;;;;;;10.30;1.65;;;24.30;61.80;;;;;;5170424;23;20020;-51
2023/04/21 07:08:59;;;;;;;7.75;1.63;;;24.30;61.40;;;;;;5142342;22;20362;-58
2023/04/21 07:11:22;;;;;;;7.13;2.47;;;24.30;60.50;;;;;;5169465;23;20020;-59
2023/04/21 07:13:44;;;;;;;7.82;1.88;;;24.20;60.50;;;;;;5168575;23;20496;-57
2023/04/21 07:16:07;;;;;;;4.55;1.55;;;24.20;60.50;;;;;;5171655;23;20019;-61
2023/04/21 07:18:29;;;;;;;4.40;1.50;;;24.20;60.30;;;;;;5170585;23;20563;-53
2023/04/21 07:20:52;;;;;;;2.65;1.20;;;24.10;60.00;;;;;;5170790;23;20024;-56
2023/04/21 07:23:14;;;;;;;3.90;1.10;;;24.10;60.00;;;;;;5170420;23;20008;-57
2023/04/21 07:25:37;;;;;;;3.67;1.10;;;24.00;60.30;;;;;;5171599;23;20107;-56
2023/04/21 07:27:59;;;;;;;4.60;1.15;;;24.00;60.20;;;;;;5169491;23;20020;-54
2023/04/21 07:30:21;;;;;;;5.28;1.17;;;24.00;60.40;;;;;;5171362;23;20012;-53
2023/04/21 07:32:45;;;;;;;5.22;1.33;;;23.90;60.40;;;;;;5168906;23;20323;-53
2023/04/21 07:35:07;;;;;;;8.23;1.33;;;23.80;60.50;;;;;;5164055;22;20558;-53
2023/04/21 07:37:30;;;;;;;4.63;1.75;;;23.80;60.60;;;;;;5170372;23;20409;-54
2023/04/21 07:39:52;;;;;;;4.55;1.52;;;23.80;60.70;;;;;;5136830;23;20079;-53
2023/04/21 07:42:15;;;;;;;9.05;1.30;;;23.80;61.40;;;;;;5168457;23;20016;-54
2023/04/21 07:44:37;;;;;;;2.28;1.13;;;23.70;61.40;;;;;;5168785;23;20514;-54
2023/04/21 07:47:00;;;;;;;2.92;1.15;;;23.70;60.90;;;;;;5140806;22;20130;-53
2023/04/21 07:49:26;;;;;;;5.88;1.65;;;23.70;61.00;;;;;;4196841;27;20445;-54
2023/04/21 07:51:49;;;;;;;3.60;1.35;;;23.70;61.00;;;;;;4183511;28;20409;-54
2023/04/21 07:54:12;;;;;;;3.58;1.10;;;23.70;61.00;;;;;;4200128;28;20032;-54
2023/04/21 07:56:34;;;;;;;5.10;1.50;;;23.70;61.00;;;;;;4197542;28;20090;-55
2023/04/21 07:58:57;;;;;;;3.45;1.02;;;23.60;61.00;;;;;;4200128;28;20037;-51
2023/04/21 08:01:19;;;;;;;8.32;1.77;;;23.60;61.10;;;;;;4204443;28;20500;-56
2023/04/21 08:03:42;;;;;;;6.00;1.23;;;23.60;61.10;;;;;;4217172;28;20103;-54
2023/04/21 08:06:05;;;;;;;2.63;0.95;;;23.60;61.20;;;;;;4217931;28;20035;-54
2023/04/21 08:08:27;;;;;;;2.95;1.10;;;23.50;61.20;;;;;;4222532;28;20047;-51
2023/04/21 08:10:50;;;;;;;3.30;0.93;;;23.50;61.20;;;;;;4223475;28;20044;-54
2023/04/21 08:13:12;;;;;;;3.60;1.40;;;23.50;61.20;;;;;;4221496;28;20539;-52
2023/04/21 08:15:35;;;;;;;3.25;0.90;;;23.50;61.30;;;;;;4222925;28;20075;-48
2023/04/21 08:17:57;;;;;;;2.50;1.20;;;23.50;61.30;;;;;;4219676;28;20036;-53
2023/04/21 08:20:19;;;;;;;3.58;1.17;;;23.40;61.30;;;;;;4203971;28;20032;-51
2023/04/21 08:22:42;;;;;;;2.95;0.90;;;23.40;61.40;;;;;;4223013;28;20036;-53
2023/04/21 08:25:05;;;;;;;5.63;1.05;;;23.40;61.50;;;;;;4222057;28;20032;-53
2023/04/21 08:27:27;;;;;;;2.97;1.02;;;23.40;61.50;;;;;;4218630;28;20032;-51
2023/04/21 08:29:50;;;;;;;3.63;1.33;;;23.40;61.60;;;;;;4215116;28;20039;-54
2023/04/21 08:32:13;;;;;;;4.47;1.13;;;23.40;61.70;;;;;;4212462;28;20039;-51
2023/04/21 08:34:35;;;;;;;5.07;1.33;;;23.30;61.70;;;;;;4217443;28;20027;-53
2023/04/21 08:36:57;;;;;;;2.97;1.65;;;23.30;61.80;;;;;;4218518;28;20148;-50
2023/04/21 08:39:20;;;;;;;3.90;1.30;;;23.30;62.00;;;;;;4217726;28;20025;-50
2023/04/21 08:41:42;;;;;;;3.55;1.58;;;23.30;62.00;;;;;;4222043;28;20454;-53
2023/04/21 08:44:05;;;;;;;2.22;1.05;;;23.30;62.10;;;;;;4219625;28;20474;-53
2023/04/21 08:46:28;;;;;;;2.35;1.35;;;23.30;62.20;;;;;;4222138;28;20050;-54
2023/04/21 08:48:50;;;;;;;5.07;1.65;;;23.20;62.20;;;;;;4219494;28;20501;-51
2023/04/21 08:51:20;;;;;;;1.85;0.90;;;23.20;62.30;;;;;;4218990;28;20032;-53
2023/04/21 08:53:43;;;;;;;2.88;1.23;;;23.20;62.30;;;;;;4212158;28;20069;-55
2023/04/21 08:56:06;;;;;;;4.75;1.15;;;23.20;62.40;;;;;;4211522;28;20399;-53
2023/04/21 08:58:28;;;;;;;2.92;1.23;;;23.20;62.50;;;;;;4212206;28;20032;-52
2023/04/21 09:00:51;;;;;;;1.42;1.08;;;23.20;62.50;;;;;;4191305;28;20063;-53
2023/04/21 09:03:20;;;;;;;3.08;1.10;;;23.10;62.60;;;;;;4196527;28;20161;-53
2023/04/21 09:05:43;;;;;;;3.25;1.35;;;23.20;62.80;;;;;;4194095;28;20086;-54
2023/04/21 09:08:17;;;;;;;2.05;1.00;;;23.10;62.60;;;;;;4200823;28;20407;-52
2023/04/21 09:10:49;;;;;;;2.88;1.20;;;23.10;62.70;;;;;;4204552;28;20032;-56
2023/04/21 09:13:11;;;;;;;2.30;1.20;;;23.10;62.70;;;;;;4199910;28;20044;-54
2023/04/21 09:15:42;;;;;;;2.47;1.30;;;23.10;62.60;;;;;;4195616;28;20097;-53
2023/04/21 09:18:23;;;;;;;3.33;1.17;;;23.00;62.70;;;;;;4198106;28;20047;-54
2023/04/21 09:20:47;;;;;;;2.08;0.95;;;23.10;62.80;;;;;;4200468;28;20075;-52
2023/04/21 09:23:10;;;;;;;3.30;1.42;;;23.00;62.80;;;;;;4202208;28;20028;-54
2023/04/21 09:25:33;;;;;;;2.00;1.13;;;23.00;62.80;;;;;;4198929;28;20046;-54
2023/04/21 09:27:56;;;;;;;1.83;1.20;;;23.00;62.90;;;;;;4201862;28;20036;-54
2023/04/21 09:30:21;;;;;;;2.70;1.10;;;23.00;62.90;;;;;;4196531;28;20043;-55
2023/04/21 09:32:43;;;;;;;3.25;1.40;;;23.00;63.00;;;;;;4205270;28;20116;-54
2023/04/21 09:35:10;;;;;;;1.98;1.02;;;23.00;63.00;;;;;;4200598;28;20115;-54
2023/04/21 09:37:33;;;;;;;1.35;0.90;;;22.90;63.00;;;;;;4190566;28;20435;-54
2023/04/21 09:39:55;;;;;;;1.33;1.03;;;22.90;63.10;;;;;;4201315;28;20123;-53
2023/04/21 09:42:18;;;;;;;1.98;0.90;;;22.90;63.20;;;;;;4199547;28;20289;-51
2023/04/21 09:44:40;;;;;;;2.17;1.08;;;22.90;63.10;;;;;;4202610;28;20072;-56
2023/04/21 09:47:04;;;;;;;1.35;0.70;;;22.90;63.20;;;;;;4180331;28;20033;-55
2023/04/21 09:49:34;;;;;;;2.90;1.58;;;22.90;63.20;;;;;;4186026;28;20052;-53
2023/04/21 09:52:00;;;;;;;1.90;1.40;;;22.90;63.90;;;;;;4199067;28;20115;-54
2023/04/21 09:54:30;;;;;;;2.42;1.17;;;22.90;63.20;;;;;;4201643;28;20147;-52
2023/04/21 09:56:56;;;;;;;1.45;1.05;;;22.90;63.30;;;;;;4198910;28;20523;-53
2023/04/21 09:59:24;;;;;;;1.95;1.20;;;22.90;62.70;;;;;;4203944;28;20091;-51
2023/04/21 10:01:49;;;;;;;1.48;1.00;;;22.90;63.30;;;;;;4199835;28;20541;-51
2023/04/21 10:04:12;;;;;;;3.50;1.45;;;22.80;63.30;;;;;;4197997;28;20123;-53
2023/04/21 10:06:35;;;;;;;1.60;0.90;;;22.80;63.30;;;;;;4199747;28;20035;-51
2023/04/21 10:08:58;;;;;;;2.15;1.48;;;22.80;63.30;;;;;;4197942;28;20063;-52
2023/04/21 10:11:20;;;;;;;1.70;1.17;;;22.80;63.30;;;;;;4198215;28;20042;-53
2023/04/21 10:13:44;;;;;;;1.00;0.90;;;22.70;63.40;;;;;;4203874;28;20509;-53
2023/04/21 10:16:09;;;;;;;1.92;1.10;;;22.80;63.40;;;;;;4202577;28;20036;-54
2023/04/21 10:18:31;;;;;;;1.48;0.95;;;22.70;63.40;;;;;;4196291;28;20039;-54
2023/04/21 10:21:23;;;;;;;2.83;1.35;;;22.70;63.30;;;;;;4183316;28;20124;-50
2023/04/21 10:23:47;;;;;;;3.22;1.67;;;22.70;63.40;;;;;;4195568;28;20070;-54
2023/04/21 10:26:15;;;;;;;2.33;1.17;;;22.70;63.40;;;;;;4192923;28;20036;-53
2023/04/21 10:28:54;;;;;;;2.65;1.45;;;22.70;63.40;;;;;;4196782;28;20048;-54
2023/04/21 10:31:25;;;;;;;2.42;1.30;;;22.70;63.40;;;;;;4199985;28;20483;-51
2023/04/21 10:34:06;;;;;;;3.13;1.35;;;22.70;63.60;;;;;;4194180;28;20048;-52
2023/04/21 10:36:29;;;;;;;2.40;0.90;;;22.60;63.40;;;;;;4197727;28;20051;-54
2023/04/21 10:38:58;;;;;;;2.15;1.20;;;22.60;63.30;;;;;;4197815;28;20090;-52
2023/04/21 10:41:34;;;;;;;2.47;1.33;;;22.60;63.30;;;;;;4197313;28;20036;-53
2023/04/21 10:44:16;;;;;;;1.77;1.30;;;22.60;63.50;;;;;;4200017;28;20040;-49
2023/04/21 10:46:44;;;;;;;2.63;1.35;;;22.60;63.40;;;;;;4192181;28;20525;-54
2023/04/21 10:49:24;;;;;;;1.77;1.10;;;22.60;63.40;;;;;;4195248;28;20567;-52
2023/04/21 10:52:01;;;;;;;3.05;1.30;;;22.60;63.50;;;;;;4192362;28;20071;-52
2023/04/21 10:54:30;;;;;;;2.15;1.25;;;22.60;63.50;;;;;;4194507;28;20166;-51
2023/04/21 10:56:58;;;;;;;2.53;1.30;;;22.60;63.40;;;;;;4192608;28;20051;-50
2023/04/21 10:59:21;;;;;;;2.25;1.25;;;22.60;63.50;;;;;;4196141;28;20072;-50
2023/04/21 11:01:44;;;;;;;2.25;1.33;;;22.50;63.40;;;;;;4198326;28;20044;-52
2023/04/21 11:04:06;;;;;;;1.60;0.98;;;22.50;63.40;;;;;;4198131;28;20519;-51
2023/04/21 11:06:29;;;;;;;2.85;1.60;;;22.50;63.50;;;;;;4196534;28;20058;-54
2023/04/21 11:08:56;;;;;;;2.78;1.40;;;22.50;63.40;;;;;;4199752;28;20447;-53
2023/04/21 11:11:26;;;;;;;1.73;1.40;;;22.50;63.50;;;;;;4198728;28;20032;-53
2023/04/21 11:13:49;;;;;;;3.80;1.65;;;22.50;63.40;;;;;;4201646;28;20228;-53
2023/04/21 11:16:11;;;;;;;2.28;1.30;;;22.50;63.40;;;;;;4200280;28;20475;-52
2023/04/21 11:18:38;;;;;;;2.65;1.27;;;22.50;63.40;;;;;;4197845;28;20067;-50
2023/04/21 11:21:17;;;;;;;2.72;1.15;;;22.50;63.40;;;;;;4182025;28;20047;-53
2023/04/21 11:23:41;;;;;;;2.63;1.25;;;22.40;63.30;;;;;;4198433;28;20446;-49
2023/04/21 11:26:03;;;;;;;3.58;1.67;;;22.40;63.40;;;;;;4197587;28;20091;-51
2023/04/21 11:28:26;;;;;;;1.75;1.05;;;22.40;63.40;;;;;;4199350;28;20415;-51
2023/04/21 11:30:49;;;;;;;3.50;1.20;;;22.40;63.40;;;;;;4193339;28;20094;-55
2023/04/21 11:33:11;;;;;;;1.70;1.17;;;22.40;63.40;;;;;;4197228;28;20123;-51
2023/04/21 11:35:34;;;;;;;3.00;1.70;;;22.40;63.40;;;;;;4183360;28;20036;-53
2023/04/21 11:37:57;;;;;;;1.48;1.10;;;22.30;63.40;;;;;;4166708;28;20037;-54
2023/04/21 11:40:19;;;;;;;2.72;1.60;;;22.30;63.40;;;;;;4191333;28;20400;-53
2023/04/21 11:42:42;;;;;;;2.95;1.10;;;22.30;63.40;;;;;;4199783;28;20329;-54
2023/04/21 11:45:05;;;;;;;1.30;1.10;;;22.30;63.40;;;;;;4203117;28;20137;-54
2023/04/21 11:47:28;;;;;;;3.45;1.40;;;22.30;63.40;;;;;;4202668;28;20044;-53
2023/04/21 11:49:56;;;;;;;2.65;1.58;;;22.30;63.40;;;;;;4198653;28;20051;-54
2023/04/21 11:52:44;;;;;;;2.97;1.50;;;22.30;63.40;;;;;;4197916;28;20036;-54
2023/04/21 11:55:17;;;;;;;2.47;1.38;;;22.20;63.40;;;;;;4208250;28;20058;-51
2023/04/21 11:57:40;;;;;;;2.42;1.40;;;22.20;63.50;;;;;;4195200;28;20067;-52
2023/04/21 12:00:10;;;;;;;3.42;1.58;;;22.20;63.50;;;;;;4205244;28;20051;-52
2023/04/21 12:02:33;;;;;;;2.30;1.30;;;22.20;63.60;;;;;;4205432;28;20043;-54
2023/04/21 12:05:07;;;;;;;1.88;1.13;;;22.20;63.70;;;;;;4208828;28;20047;-53
2023/04/21 12:07:30;;;;;;;1.92;1.35;;;22.20;63.70;;;;;;4210982;28;20109;-54
2023/04/21 12:09:54;;;;;;;1.98;1.27;;;22.10;63.60;;;;;;4210613;28;20048;-53
2023/04/21 12:12:16;;;;;;;2.40;1.52;;;22.10;63.70;;;;;;4207106;28;20032;-53
2023/04/21 12:14:39;;;;;;;1.20;1.00;;;22.10;63.70;;;;;;4210831;28;20040;-55
2023/04/21 12:17:01;;;;;;;2.28;1.30;;;22.10;63.70;;;;;;4207073;28;20098;-54
2023/04/21 12:19:25;;;;;;;1.38;1.15;;;22.10;63.70;;;;;;4204653;28;20082;-55
2023/04/21 12:21:55;;;;;;;1.63;1.10;;;22.10;63.70;;;;;;4207787;28;20036;-54
2023/04/21 12:24:18;;;;;;;1.63;1.08;;;22.10;63.70;;;;;;4206196;28;20039;-54
2023/04/21 12:26:40;;;;;;;2.97;1.33;;;22.10;63.80;;;;;;4207001;28;20318;-53